createdAt,value
2019-01-24T00:02:01.284Z,-2.20
2019-01-24T00:04:31.786Z,-2.20
2019-01-24T00:07:03.051Z,-2.20
2019-01-24T00:09:34.541Z,-2.30
2019-01-24T00:12:05.563Z,-2.20
2019-01-24T00:14:36.376Z,-2.30
2019-01-24T00:17:06.769Z,-2.30
2019-01-24T00:19:37.635Z,-2.30
2019-01-24T00:22:08.142Z,-2.30
2019-01-24T00:24:41.736Z,-2.20
2019-01-24T00:27:12.067Z,-2.20
2019-01-24T00:29:43.570Z,-2.20
2019-01-24T00:32:14.129Z,-2.30
2019-01-24T00:34:44.874Z,-2.30
2019-01-24T00:37:15.900Z,-2.40
2019-01-24T00:39:46.862Z,-2.30
2019-01-24T00:42:17.445Z,-2.30
2019-01-24T00:44:47.851Z,-2.40
2019-01-24T00:47:19.174Z,-2.50
2019-01-24T00:49:50.172Z,-2.50
2019-01-24T00:52:22.366Z,-2.50
2019-01-24T00:54:53.386Z,-2.60
2019-01-24T00:57:25.267Z,-2.60
2019-01-24T00:59:55.739Z,-2.60
2019-01-24T01:02:26.032Z,-2.60
2019-01-24T01:04:58.062Z,-2.50
2019-01-24T01:07:29.212Z,-2.50
2019-01-24T01:10:00.167Z,-2.30
2019-01-24T01:12:31.623Z,-2.30
2019-01-24T01:15:02.871Z,-2.40
2019-01-24T01:17:33.296Z,-2.40
2019-01-24T01:20:04.017Z,-2.50
2019-01-24T01:22:34.709Z,-2.60
2019-01-24T01:25:06.497Z,-2.50
2019-01-24T01:27:37.360Z,-2.60
2019-01-24T01:30:11.800Z,-2.70
2019-01-24T01:32:43.108Z,-2.70
2019-01-24T01:35:13.019Z,-2.80
2019-01-24T01:37:44.907Z,-2.90
2019-01-24T01:40:16.746Z,-2.90
2019-01-24T01:42:48.141Z,-2.90
2019-01-24T01:45:20.788Z,-2.90
2019-01-24T01:47:51.491Z,-2.90
2019-01-24T01:50:23.905Z,-2.90
2019-01-24T01:52:54.640Z,-2.90
2019-01-24T01:55:25.577Z,-2.80
2019-01-24T01:57:56.611Z,-2.90
2019-01-24T02:00:28.131Z,-3.00
2019-01-24T02:02:59.038Z,-3.00
2019-01-24T02:05:30.007Z,-3.00
2019-01-24T02:08:00.692Z,-3.00
2019-01-24T02:10:31.167Z,-3.00
2019-01-24T02:13:01.604Z,-2.80
2019-01-24T02:15:32.570Z,-3.00
2019-01-24T02:18:03.989Z,-3.00
2019-01-24T02:20:34.737Z,-3.00
2019-01-24T02:23:05.332Z,-2.90
2019-01-24T02:25:37.139Z,-2.70
2019-01-24T02:28:08.023Z,-2.70
2019-01-24T02:30:38.825Z,-2.60
2019-01-24T02:33:09.996Z,-2.70
2019-01-24T02:35:41.337Z,-2.80
2019-01-24T02:38:12.303Z,-2.80
2019-01-24T02:40:43.267Z,-2.70
2019-01-24T02:43:14.304Z,-2.90
2019-01-24T02:45:44.757Z,-2.90
2019-01-24T02:48:15.855Z,-2.80
2019-01-24T02:50:47.360Z,-2.80
2019-01-24T02:53:18.479Z,-2.80
2019-01-24T02:55:49.028Z,-2.70
2019-01-24T02:58:20.267Z,-2.70
2019-01-24T03:00:50.838Z,-2.80
2019-01-24T03:03:21.878Z,-2.90
2019-01-24T03:05:52.378Z,-3.00
2019-01-24T03:08:24.085Z,-2.90
2019-01-24T03:10:55.106Z,-2.90
2019-01-24T03:13:26.180Z,-3.10
2019-01-24T03:15:57.481Z,-3.20
2019-01-24T03:18:28.218Z,-3.30
2019-01-24T03:20:59.016Z,-3.30
2019-01-24T03:23:30.219Z,-3.20
2019-01-24T03:26:01.013Z,-3.10
2019-01-24T03:28:32.266Z,-3.00
2019-01-24T03:31:03.194Z,-3.00
2019-01-24T03:33:33.967Z,-3.00
2019-01-24T03:36:05.298Z,-2.90
2019-01-24T03:38:35.937Z,-2.80
2019-01-24T03:41:08.231Z,-3.00
2019-01-24T03:43:38.702Z,-3.00
2019-01-24T03:46:10.687Z,-3.00
2019-01-24T03:48:42.358Z,-3.00
2019-01-24T03:51:13.735Z,-3.10
2019-01-24T03:53:44.887Z,-3.10
2019-01-24T03:56:15.523Z,-3.10
2019-01-24T03:58:46.040Z,-3.10
2019-01-24T04:01:16.633Z,-3.10
2019-01-24T04:03:47.254Z,-3.10
2019-01-24T04:06:17.748Z,-3.10
2019-01-24T04:08:48.136Z,-3.10
2019-01-24T04:11:18.608Z,-3.10
2019-01-24T04:13:49.979Z,-3.10
2019-01-24T04:16:21.842Z,-3.20
2019-01-24T04:18:52.714Z,-3.10
2019-01-24T04:21:23.638Z,-3.00
2019-01-24T04:23:54.960Z,-3.00
2019-01-24T04:26:25.617Z,-3.10
2019-01-24T04:28:56.855Z,-3.20
2019-01-24T04:31:28.946Z,-3.30
2019-01-24T04:33:59.539Z,-3.30
2019-01-24T04:36:30.113Z,-3.30
2019-01-24T04:39:00.890Z,-3.40
2019-01-24T04:41:32.232Z,-3.30
2019-01-24T04:44:02.800Z,-3.20
2019-01-24T04:46:33.211Z,-3.00
2019-01-24T04:49:04.784Z,-2.90
2019-01-24T04:51:35.273Z,-2.90
2019-01-24T04:54:05.655Z,-2.90
2019-01-24T04:56:36.078Z,-2.90
2019-01-24T04:59:06.392Z,-2.80
2019-01-24T05:01:38.022Z,-2.90
2019-01-24T05:04:11.728Z,-2.90
2019-01-24T05:06:42.141Z,-2.90
2019-01-24T05:09:12.504Z,-2.90
2019-01-24T05:11:43.225Z,-2.90
2019-01-24T05:14:14.036Z,-2.90
2019-01-24T05:16:44.947Z,-3.00
2019-01-24T05:19:15.656Z,-2.90
2019-01-24T05:21:46.673Z,-3.00
2019-01-24T05:24:17.720Z,-3.10
2019-01-24T05:26:48.541Z,-3.20
2019-01-24T05:29:20.029Z,-3.20
2019-01-24T05:31:51.905Z,-3.40
2019-01-24T05:34:23.205Z,-3.60
2019-01-24T05:36:53.887Z,-3.60
2019-01-24T05:39:24.533Z,-3.60
2019-01-24T05:41:55.004Z,-3.50
2019-01-24T05:44:26.820Z,-3.60
2019-01-24T05:46:57.781Z,-3.50
2019-01-24T05:49:28.750Z,-3.50
2019-01-24T05:51:59.488Z,-3.50
2019-01-24T05:54:30.461Z,-3.40
2019-01-24T05:57:01.163Z,-3.50
2019-01-24T05:59:33.174Z,-3.50
2019-01-24T06:02:04.226Z,-3.40
2019-01-24T06:04:36.266Z,-3.40
2019-01-24T06:07:07.099Z,-3.60
2019-01-24T06:09:37.700Z,-3.60
2019-01-24T06:12:08.672Z,-3.50
2019-01-24T06:14:39.294Z,-3.60
2019-01-24T06:17:09.875Z,-3.80
2019-01-24T06:19:40.304Z,-3.80
2019-01-24T06:22:11.313Z,-3.90
2019-01-24T06:24:41.773Z,-3.80
2019-01-24T06:27:12.541Z,-3.80
2019-01-24T06:29:44.332Z,-3.90
2019-01-24T06:32:14.884Z,-4.00
2019-01-24T06:34:45.370Z,-4.00
2019-01-24T06:37:16.401Z,-3.80
2019-01-24T06:39:47.339Z,-3.70
2019-01-24T06:42:18.328Z,-3.90
2019-01-24T06:44:49.488Z,-3.90
2019-01-24T06:47:20.171Z,-3.90
2019-01-24T06:49:50.788Z,-3.90
2019-01-24T06:52:21.835Z,-3.90
2019-01-24T06:54:52.996Z,-4.00
2019-01-24T06:57:23.649Z,-3.90
2019-01-24T06:59:54.629Z,-3.90
2019-01-24T07:02:25.061Z,-4.00
2019-01-24T07:04:55.931Z,-4.00
2019-01-24T07:07:26.808Z,-3.90
2019-01-24T07:09:57.225Z,-3.80
2019-01-24T07:12:29.787Z,-3.80
2019-01-24T07:15:00.331Z,-3.90
2019-01-24T07:17:31.332Z,-3.70
2019-01-24T07:20:02.062Z,-3.80
2019-01-24T07:22:32.785Z,-3.80
2019-01-24T07:25:03.224Z,-3.80
2019-01-24T07:27:34.219Z,-3.70
2019-01-24T07:30:08.037Z,-3.70
2019-01-24T07:32:38.995Z,-3.70
2019-01-24T07:35:11.953Z,-3.70
2019-01-24T07:37:42.493Z,-3.50
2019-01-24T07:40:15.184Z,-3.60
2019-01-24T07:42:45.547Z,-3.60
2019-01-24T07:45:24.070Z,-3.60
2019-01-24T07:47:54.880Z,-3.70
2019-01-24T07:50:25.738Z,-3.50
2019-01-24T07:52:56.032Z,-3.50
2019-01-24T07:55:27.097Z,-3.40
2019-01-24T07:57:58.225Z,-3.40
2019-01-24T08:00:29.957Z,-3.40
2019-01-24T08:03:01.251Z,-3.50
2019-01-24T08:05:31.800Z,-3.50
2019-01-24T08:08:02.576Z,-3.60
2019-01-24T08:10:33.431Z,-3.70
2019-01-24T08:13:04.117Z,-3.50
2019-01-24T08:15:35.155Z,-3.50
2019-01-24T08:18:07.720Z,-3.40
2019-01-24T08:20:38.653Z,-3.40
2019-01-24T08:23:09.158Z,-3.30
2019-01-24T08:25:40.990Z,-3.50
2019-01-24T08:28:12.612Z,-3.50
2019-01-24T08:30:43.400Z,-3.40
2019-01-24T08:33:14.565Z,-3.50
2019-01-24T08:35:45.505Z,-3.50
2019-01-24T08:38:17.278Z,-3.40
2019-01-24T08:40:48.297Z,-3.40
2019-01-24T08:43:19.174Z,-3.30
2019-01-24T08:45:50.038Z,-3.20
2019-01-24T08:48:22.230Z,-3.20
2019-01-24T08:50:53.657Z,-3.30
2019-01-24T08:53:24.910Z,-3.30
2019-01-24T08:55:55.765Z,-3.10
2019-01-24T08:58:26.641Z,-3.10
2019-01-24T09:00:57.311Z,-3.10
2019-01-24T09:03:27.762Z,-3.20
2019-01-24T09:05:58.881Z,-3.20
2019-01-24T09:08:29.673Z,-3.20
2019-01-24T09:11:00.343Z,-3.20
2019-01-24T09:13:31.608Z,-3.10
2019-01-24T09:16:02.422Z,-2.90
2019-01-24T09:18:34.057Z,-2.90
2019-01-24T09:21:04.871Z,-2.90
2019-01-24T09:23:35.431Z,-2.90
2019-01-24T09:26:06.845Z,-2.90
2019-01-24T09:28:37.516Z,-3.00
2019-01-24T09:31:09.163Z,-3.00
2019-01-24T09:33:40.198Z,-2.80
2019-01-24T09:36:12.296Z,-2.80
2019-01-24T09:38:42.843Z,-2.80
2019-01-24T09:41:13.792Z,-2.70
2019-01-24T09:43:46.208Z,-2.70
2019-01-24T09:46:16.850Z,-2.80
2019-01-24T09:48:47.394Z,-2.80
2019-01-24T09:51:19.630Z,-2.80
2019-01-24T09:53:50.798Z,-2.70
2019-01-24T09:56:21.564Z,-2.60
2019-01-24T09:58:52.078Z,-2.70
2019-01-24T10:01:22.663Z,-2.60
2019-01-24T10:03:53.102Z,-2.40
2019-01-24T10:06:23.358Z,-2.30
2019-01-24T10:08:54.058Z,-2.20
2019-01-24T10:11:25.135Z,-2.00
2019-01-24T10:13:56.074Z,-1.90
2019-01-24T10:16:26.407Z,-2.00
2019-01-24T10:18:57.261Z,-2.10
2019-01-24T10:21:27.910Z,-2.30
2019-01-24T10:23:58.522Z,-2.30
2019-01-24T10:26:30.378Z,-2.30
2019-01-24T10:29:01.138Z,-2.10
2019-01-24T10:31:32.264Z,-2.00
2019-01-24T10:34:03.695Z,-2.10
2019-01-24T10:36:34.386Z,-2.10
2019-01-24T10:39:08.453Z,-2.20
2019-01-24T10:41:39.916Z,-2.30
2019-01-24T10:44:10.410Z,-2.10
2019-01-24T10:46:41.010Z,-2.10
2019-01-24T10:49:14.384Z,-2.20
2019-01-24T10:51:45.504Z,-2.10
2019-01-24T10:54:16.856Z,-2.20
2019-01-24T10:56:47.696Z,-2.10
2019-01-24T10:59:18.236Z,-2.10
2019-01-24T11:01:49.437Z,-2.30
2019-01-24T11:04:20.076Z,-2.50
2019-01-24T11:06:50.717Z,-2.40
2019-01-24T11:09:21.490Z,-2.40
2019-01-24T11:11:53.689Z,-2.20
2019-01-24T11:14:25.556Z,-2.10
2019-01-24T11:16:56.126Z,-2.10
2019-01-24T11:19:27.870Z,-2.10
2019-01-24T11:21:58.438Z,-2.20
2019-01-24T11:24:29.337Z,-2.20
2019-01-24T11:27:00.002Z,-2.40
2019-01-24T11:29:31.009Z,-2.20
2019-01-24T11:32:02.056Z,-2.00
2019-01-24T11:34:33.407Z,-2.20
2019-01-24T11:37:04.746Z,-2.40
2019-01-24T11:39:35.462Z,-2.50
2019-01-24T11:42:06.147Z,-2.60
2019-01-24T11:44:37.222Z,-2.60
2019-01-24T11:47:07.917Z,-2.60
2019-01-24T11:49:39.366Z,-2.50
2019-01-24T11:52:10.290Z,-2.40
2019-01-24T11:54:41.529Z,-2.20
2019-01-24T11:57:11.821Z,-2.20
2019-01-24T11:59:43.182Z,-2.30
2019-01-24T12:02:14.534Z,-2.40
2019-01-24T12:04:45.507Z,-2.40
2019-01-24T12:07:16.634Z,-2.40
2019-01-24T12:09:47.546Z,-2.30
2019-01-24T12:12:18.677Z,-2.40
2019-01-24T12:14:50.490Z,-2.40
2019-01-24T12:17:21.829Z,-2.20
2019-01-24T12:19:54.795Z,-2.10
2019-01-24T12:22:26.275Z,-2.10
2019-01-24T12:24:56.904Z,-2.30
2019-01-24T12:27:27.794Z,-2.50
2019-01-24T12:29:58.767Z,-2.50
2019-01-24T12:32:31.208Z,-2.60
2019-01-24T12:35:02.925Z,-2.50
2019-01-24T12:37:33.807Z,-2.50
2019-01-24T12:40:05.912Z,-2.50
2019-01-24T12:42:37.265Z,-2.50
2019-01-24T12:45:11.213Z,-2.40
2019-01-24T12:47:41.897Z,-2.30
2019-01-24T12:50:14.142Z,-2.30
2019-01-24T12:52:45.372Z,-2.20
2019-01-24T12:55:16.356Z,-2.00
2019-01-24T12:57:47.080Z,-1.70
2019-01-24T13:00:23.734Z,-1.80
2019-01-24T13:02:54.302Z,-2.00
2019-01-24T13:05:26.550Z,-2.20
2019-01-24T13:07:58.084Z,-2.20
2019-01-24T13:10:29.179Z,-2.30
2019-01-24T13:12:59.669Z,-2.30
2019-01-24T13:15:33.498Z,-2.30
2019-01-24T13:18:04.021Z,-2.40
2019-01-24T13:20:34.800Z,-2.50
2019-01-24T13:23:06.055Z,-2.50
2019-01-24T13:25:37.074Z,-2.40
2019-01-24T13:28:08.745Z,-2.40
2019-01-24T13:30:40.558Z,-2.40
2019-01-24T13:33:11.189Z,-2.30
2019-01-24T13:35:42.405Z,-2.20
2019-01-24T13:38:12.940Z,-2.30
2019-01-24T13:40:43.401Z,-2.50
2019-01-24T13:43:13.877Z,-2.60
2019-01-24T13:45:44.703Z,-2.60
2019-01-24T13:48:15.533Z,-2.50
2019-01-24T13:50:46.854Z,-2.50
2019-01-24T13:53:17.360Z,-2.40
2019-01-24T13:55:49.043Z,-2.40
2019-01-24T13:58:20.343Z,-2.40
2019-01-24T14:00:51.347Z,-2.50
2019-01-24T14:03:27.709Z,-2.40
2019-01-24T14:05:59.668Z,-2.20
2019-01-24T14:08:30.340Z,-2.10
2019-01-24T14:11:00.937Z,-2.20
2019-01-24T14:13:32.035Z,-2.10
2019-01-24T14:16:02.935Z,-2.20
2019-01-24T14:18:34.422Z,-2.30
2019-01-24T14:21:05.040Z,-2.30
2019-01-24T14:23:36.874Z,-2.40
2019-01-24T14:26:07.796Z,-2.60
2019-01-24T14:28:38.837Z,-2.60
2019-01-24T14:31:09.901Z,-2.60
2019-01-24T14:33:41.240Z,-2.70
2019-01-24T14:36:12.016Z,-2.70
2019-01-24T14:38:43.292Z,-2.60
2019-01-24T14:41:14.057Z,-2.60
2019-01-24T14:43:44.758Z,-2.70
2019-01-24T14:46:15.862Z,-2.60
2019-01-24T14:48:46.860Z,-2.80
2019-01-24T14:51:17.566Z,-2.90
2019-01-24T14:53:48.621Z,-3.00
2019-01-24T14:56:19.320Z,-2.90
2019-01-24T14:58:50.512Z,-2.80
2019-01-24T15:01:26.771Z,-2.60
2019-01-24T15:04:02.120Z,-2.70
2019-01-24T15:06:33.745Z,-2.80
2019-01-24T15:09:05.616Z,-2.80
2019-01-24T15:11:36.464Z,-2.80
2019-01-24T15:14:07.359Z,-2.90
2019-01-24T15:16:38.549Z,-3.00
2019-01-24T15:19:09.510Z,-3.00
2019-01-24T15:21:44.784Z,-2.90
2019-01-24T15:24:16.500Z,-2.90
2019-01-24T15:26:46.934Z,-3.00
2019-01-24T15:29:19.079Z,-3.00
2019-01-24T15:31:49.492Z,-2.80
2019-01-24T15:34:20.137Z,-2.70
2019-01-24T15:36:53.570Z,-2.70
2019-01-24T15:39:24.444Z,-2.60
2019-01-24T15:41:56.062Z,-2.60
2019-01-24T15:44:26.927Z,-2.60
2019-01-24T15:46:58.232Z,-2.70
2019-01-24T15:49:29.733Z,-2.70
2019-01-24T15:52:00.785Z,-2.70
2019-01-24T15:54:32.247Z,-2.80
2019-01-24T15:57:03.952Z,-2.80
2019-01-24T15:59:35.491Z,-2.80
2019-01-24T16:02:06.465Z,-2.70
2019-01-24T16:04:36.991Z,-2.70
2019-01-24T16:07:07.979Z,-2.80
2019-01-24T16:09:40.095Z,-2.90
2019-01-24T16:12:11.769Z,-2.70
2019-01-24T16:14:42.453Z,-2.70
2019-01-24T16:18:14.733Z,-2.80
2019-01-24T16:20:46.857Z,-2.90
2019-01-24T16:23:18.345Z,-2.80
2019-01-24T16:25:49.095Z,-2.80
2019-01-24T16:28:24.637Z,-2.70
2019-01-24T16:30:53.564Z,-2.70
2019-01-24T16:33:24.899Z,-2.70
2019-01-24T16:35:55.983Z,-2.80
2019-01-24T16:38:27.671Z,-2.70
2019-01-24T16:40:59.697Z,-2.60
2019-01-24T16:43:30.822Z,-2.70
2019-01-24T16:46:02.000Z,-2.70
2019-01-24T16:48:33.101Z,-2.70
2019-01-24T16:51:03.705Z,-2.70
2019-01-24T16:53:35.349Z,-2.70
2019-01-24T16:56:06.644Z,-2.80
2019-01-24T16:58:37.576Z,-2.80
2019-01-24T17:01:22.758Z,-2.80
2019-01-24T17:03:53.667Z,-2.70
2019-01-24T17:06:25.241Z,-2.70
2019-01-24T17:08:57.991Z,-2.60
2019-01-24T17:11:28.773Z,-2.50
2019-01-24T17:14:00.691Z,-2.50
2019-01-24T17:16:33.303Z,-2.60
2019-01-24T17:19:05.741Z,-2.50
2019-01-24T17:21:38.081Z,-2.50
2019-01-24T17:24:09.131Z,-2.60
2019-01-24T17:26:40.380Z,-2.50
2019-01-24T17:29:12.392Z,-2.60
2019-01-24T17:31:43.289Z,-2.70
2019-01-24T17:34:14.823Z,-2.70
2019-01-24T17:36:46.832Z,-2.70
2019-01-24T17:39:18.089Z,-2.70
2019-01-24T17:41:49.644Z,-2.70
2019-01-24T17:44:21.077Z,-2.50
2019-01-24T17:46:52.282Z,-2.40
2019-01-24T17:49:24.727Z,-2.40
2019-01-24T17:51:55.716Z,-2.40
2019-01-24T17:54:26.373Z,-2.50
2019-01-24T17:56:57.414Z,-2.40
2019-01-24T17:59:30.383Z,-2.30
2019-01-24T18:02:04.355Z,-2.20
2019-01-24T18:04:36.514Z,-2.10
2019-01-24T18:07:08.927Z,-2.20
2019-01-24T18:09:40.950Z,-2.20
2019-01-24T18:12:12.862Z,-2.20
2019-01-24T18:14:43.537Z,-2.50
2019-01-24T18:17:14.373Z,-2.40
2019-01-24T18:19:46.697Z,-2.40
2019-01-24T18:22:18.419Z,-2.30
2019-01-24T18:24:50.411Z,-2.20
2019-01-24T18:27:22.003Z,-2.40
2019-01-24T18:29:54.097Z,-2.40
2019-01-24T18:32:25.595Z,-2.30
2019-01-24T18:34:57.323Z,-2.40
2019-01-24T18:37:28.782Z,-2.50
2019-01-24T18:40:00.593Z,-2.40
2019-01-24T18:42:33.221Z,-2.40
2019-01-24T18:45:05.043Z,-2.40
2019-01-24T18:47:37.535Z,-2.50
2019-01-24T18:50:13.547Z,-2.50
2019-01-24T18:52:45.499Z,-2.40
2019-01-24T18:55:16.975Z,-2.40
2019-01-24T18:57:48.043Z,-2.30
2019-01-24T19:00:27.701Z,-2.40
2019-01-24T19:02:59.264Z,-2.50
2019-01-24T19:05:30.955Z,-2.40
2019-01-24T19:08:03.381Z,-2.40
2019-01-24T19:10:35.053Z,-2.40
2019-01-24T19:13:08.307Z,-2.40
2019-01-24T19:15:40.648Z,-2.60
2019-01-24T19:18:16.127Z,-2.50
2019-01-24T19:20:47.817Z,-2.50
2019-01-24T19:23:19.484Z,-2.40
2019-01-24T19:25:51.175Z,-2.40
2019-01-24T19:28:23.231Z,-2.30
2019-01-24T19:30:55.048Z,-2.30
2019-01-24T19:33:26.847Z,-2.40
2019-01-24T19:36:00.393Z,-2.40
2019-01-24T19:38:32.202Z,-2.40
2019-01-24T19:41:04.136Z,-2.60
2019-01-24T19:43:36.133Z,-2.60
2019-01-24T19:46:08.657Z,-2.60
2019-01-24T19:48:39.941Z,-2.50
2019-01-24T19:51:11.950Z,-2.70
2019-01-24T19:53:43.422Z,-2.50
2019-01-24T19:56:15.046Z,-2.50
2019-01-24T19:58:46.204Z,-2.60
2019-01-24T20:01:19.267Z,-2.60
2019-01-24T20:03:51.124Z,-2.50
2019-01-24T20:06:23.386Z,-2.50
2019-01-24T20:09:00.080Z,-2.50
2019-01-24T20:11:27.942Z,-2.40
2019-01-24T20:13:59.518Z,-2.50
2019-01-24T20:16:30.391Z,-2.40
2019-01-24T20:19:02.866Z,-2.40
2019-01-24T20:21:34.221Z,-2.30
2019-01-24T20:24:05.707Z,-2.40
2019-01-24T20:26:37.431Z,-2.40
2019-01-24T20:29:09.520Z,-2.40
2019-01-24T20:31:40.631Z,-2.60
2019-01-24T20:34:11.880Z,-2.60
2019-01-24T20:36:43.320Z,-2.50
2019-01-24T20:39:14.060Z,-2.40
2019-01-24T20:41:44.566Z,-2.30
2019-01-24T20:44:15.399Z,-2.40
2019-01-24T20:46:46.619Z,-2.40
2019-01-24T20:49:26.273Z,-2.40
2019-01-24T20:51:57.953Z,-2.30
2019-01-24T20:54:28.931Z,-2.40
2019-01-24T20:56:59.631Z,-2.40
2019-01-24T20:59:30.504Z,-2.30
2019-01-24T21:02:04.398Z,-2.30
2019-01-24T21:04:35.130Z,-2.30
2019-01-24T21:07:05.676Z,-2.30
2019-01-24T21:09:36.789Z,-2.20
2019-01-24T21:12:07.797Z,-2.50
2019-01-24T21:14:38.859Z,-2.70
2019-01-24T21:17:09.544Z,-2.60
2019-01-24T21:19:43.380Z,-2.50
2019-01-24T21:22:13.999Z,-2.50
2019-01-24T21:24:45.317Z,-2.50
2019-01-24T21:27:16.300Z,-2.50
2019-01-24T21:29:47.335Z,-2.50
2019-01-24T21:32:17.987Z,-2.50
2019-01-24T21:34:49.095Z,-2.30
2019-01-24T21:37:20.172Z,-2.30
2019-01-24T21:39:51.103Z,-2.40
2019-01-24T21:42:21.867Z,-2.30
2019-01-24T21:44:52.764Z,-2.30
2019-01-24T21:47:23.082Z,-2.40
2019-01-24T21:49:53.389Z,-2.40
2019-01-24T21:52:26.107Z,-2.30
2019-01-24T21:54:56.728Z,-2.10
2019-01-24T21:57:27.437Z,-2.10
2019-01-24T21:59:59.660Z,-2.20
2019-01-24T22:02:30.891Z,-2.20
2019-01-24T22:05:02.928Z,-2.50
2019-01-24T22:07:33.601Z,-2.50
2019-01-24T22:10:05.388Z,-2.50
2019-01-24T22:12:36.745Z,-2.50
2019-01-24T22:15:09.531Z,-2.60
2019-01-24T22:17:41.659Z,-2.60
2019-01-24T22:20:15.105Z,-2.60
2019-01-24T22:22:47.150Z,-2.60
2019-01-24T22:25:23.303Z,-2.60
2019-01-24T22:27:53.951Z,-2.40
2019-01-24T22:30:33.107Z,-2.30
2019-01-24T22:33:04.541Z,-2.30
2019-01-24T22:35:35.509Z,-2.30
2019-01-24T22:38:08.365Z,-2.30
2019-01-24T22:40:39.067Z,-2.20
2019-01-24T22:43:09.892Z,-2.20
2019-01-24T22:45:40.702Z,-2.20
2019-01-24T22:48:12.012Z,-2.00
2019-01-24T22:50:42.499Z,-2.10
2019-01-24T22:53:13.191Z,-2.10
2019-01-24T22:55:44.019Z,-2.20
2019-01-24T22:58:14.832Z,-2.30
2019-01-24T23:01:24.014Z,-2.30
2019-01-24T23:04:03.239Z,-2.30
2019-01-24T23:06:34.058Z,-2.20
2019-01-24T23:09:06.068Z,-2.20
2019-01-24T23:11:37.404Z,-2.30
2019-01-24T23:14:09.114Z,-2.40
2019-01-24T23:16:40.109Z,-2.30
2019-01-24T23:19:11.151Z,-2.30
2019-01-24T23:21:41.980Z,-2.30
2019-01-24T23:24:12.855Z,-2.50
2019-01-24T23:26:43.499Z,-2.50
2019-01-24T23:29:15.005Z,-2.60
2019-01-24T23:31:47.680Z,-2.50
2019-01-24T23:34:18.372Z,-2.60
2019-01-24T23:36:49.384Z,-2.70
2019-01-24T23:39:20.451Z,-2.60
2019-01-24T23:41:51.228Z,-2.70
2019-01-24T23:44:23.847Z,-2.70
2019-01-24T23:46:55.190Z,-2.70
2019-01-24T23:49:26.799Z,-2.70
2019-01-24T23:51:58.143Z,-2.60
2019-01-24T23:54:29.006Z,-2.60
2019-01-24T23:57:01.268Z,-2.60
2019-01-24T23:59:31.981Z,-2.60
